sensor_id;sensor_type;location;lat;lon;timestamp;temperature;humidity
14317;DHT22;7242;50.858;6.586;2023-11-21T00:02:21;10.30;99.90
14317;DHT22;7242;50.858;6.586;2023-11-21T00:05:22;10.10;99.90
14317;DHT22;7242;50.858;6.586;2023-11-21T00:08:23;10.50;99.90
14317;DHT22;7242;50.858;6.586;2023-11-21T00:11:24;10.50;99.90
14317;DHT22;7242;50.858;6.586;2023-11-21T00:14:26;10.20;99.90
14317;DHT22;7242;50.858;6.586;2023-11-21T00:17:26;10.50;99.90
14317;DHT22;7242;50.858;6.586;2023-11-21T00:23:28;10.30;99.90
14317;DHT22;7242;50.858;6.586;2023-11-21T00:29:36;10.60;99.90
14317;DHT22;7242;50.858;6.586;2023-11-21T00:32:37;10.30;99.90
14317;DHT22;7242;50.858;6.586;2023-11-21T00:41:40;10.30;99.90
14317;DHT22;7242;50.858;6.586;2023-11-21T00:47:43;10.30;99.90
14317;DHT22;7242;50.858;6.586;2023-11-21T00:53:45;10.10;99.90
14317;DHT22;7242;50.858;6.586;2023-11-21T00:56:47;10.20;99.90
14317;DHT22;7242;50.858;6.586;2023-11-21T00:59:48;10.10;99.90
14317;DHT22;7242;50.858;6.586;2023-11-21T01:02:49;10.40;99.90
14317;DHT22;7242;50.858;6.586;2023-11-21T01:08:51;10.50;99.90
14317;DHT22;7242;50.858;6.586;2023-11-21T01:11:51;10.20;99.90
14317;DHT22;7242;50.858;6.586;2023-11-21T01:17:53;10.10;99.90
14317;DHT22;7242;50.858;6.586;2023-11-21T01:20:55;10.50;99.90
14317;DHT22;7242;50.858;6.586;2023-11-21T01:29:58;10.40;99.90
14317;DHT22;7242;50.858;6.586;2023-11-21T01:36:00;10.40;99.90
14317;DHT22;7242;50.858;6.586;2023-11-21T01:42:02;10.50;99.90
14317;DHT22;7242;50.858;6.586;2023-11-21T01:48:05;10.10;99.90
14317;DHT22;7242;50.858;6.586;2023-11-21T01:54:10;10.20;99.90
14317;DHT22;7242;50.858;6.586;2023-11-21T01:57:12;9.90;99.90
14317;DHT22;7242;50.858;6.586;2023-11-21T02:06:18;10.20;99.90
14317;DHT22;7242;50.858;6.586;2023-11-21T02:09:25;10.10;99.90
14317;DHT22;7242;50.858;6.586;2023-11-21T02:12:26;10.00;99.90
14317;DHT22;7242;50.858;6.586;2023-11-21T02:15:27;10.10;99.90
14317;DHT22;7242;50.858;6.586;2023-11-21T02:18:29;9.80;99.90
14317;DHT22;7242;50.858;6.586;2023-11-21T02:21:30;10.50;99.90
14317;DHT22;7242;50.858;6.586;2023-11-21T02:24:31;10.00;99.90
14317;DHT22;7242;50.858;6.586;2023-11-21T02:27:32;10.10;99.90
14317;DHT22;7242;50.858;6.586;2023-11-21T02:30:33;10.10;99.90
14317;DHT22;7242;50.858;6.586;2023-11-21T02:33:34;10.20;99.90
14317;DHT22;7242;50.858;6.586;2023-11-21T02:42:41;10.10;99.90
14317;DHT22;7242;50.858;6.586;2023-11-21T02:48:43;10.20;99.90
14317;DHT22;7242;50.858;6.586;2023-11-21T03:00:47;9.60;99.90
14317;DHT22;7242;50.858;6.586;2023-11-21T03:03:47;10.40;99.90
14317;DHT22;7242;50.858;6.586;2023-11-21T03:12:53;10.40;99.90
14317;DHT22;7242;50.858;6.586;2023-11-21T03:18:56;9.90;99.90
14317;DHT22;7242;50.858;6.586;2023-11-21T03:24:58;10.00;99.90
14317;DHT22;7242;50.858;6.586;2023-11-21T03:31:00;9.90;99.90
14317;DHT22;7242;50.858;6.586;2023-11-21T03:34:00;10.00;99.90
14317;DHT22;7242;50.858;6.586;2023-11-21T03:40:02;9.90;99.90
14317;DHT22;7242;50.858;6.586;2023-11-21T03:43:04;9.80;99.90
14317;DHT22;7242;50.858;6.586;2023-11-21T03:55:10;9.80;99.90
14317;DHT22;7242;50.858;6.586;2023-11-21T03:58:11;9.70;99.90
14317;DHT22;7242;50.858;6.586;2023-11-21T04:04:13;9.60;99.90
14317;DHT22;7242;50.858;6.586;2023-11-21T04:10:14;10.10;99.90
14317;DHT22;7242;50.858;6.586;2023-11-21T04:13:16;9.80;99.90
14317;DHT22;7242;50.858;6.586;2023-11-21T04:19:18;9.60;99.90
14317;DHT22;7242;50.858;6.586;2023-11-21T04:31:25;9.70;99.90
14317;DHT22;7242;50.858;6.586;2023-11-21T04:34:25;9.70;99.90
14317;DHT22;7242;50.858;6.586;2023-11-21T04:40:27;10.10;99.90
14317;DHT22;7242;50.858;6.586;2023-11-21T04:43:28;10.00;99.90
14317;DHT22;7242;50.858;6.586;2023-11-21T04:55:33;9.90;99.90
14317;DHT22;7242;50.858;6.586;2023-11-21T04:58:33;9.90;99.90
14317;DHT22;7242;50.858;6.586;2023-11-21T05:10:40;10.00;99.90
14317;DHT22;7242;50.858;6.586;2023-11-21T05:13:41;9.90;99.90
14317;DHT22;7242;50.858;6.586;2023-11-21T05:16:41;9.80;99.90
14317;DHT22;7242;50.858;6.586;2023-11-21T05:19:42;10.00;99.90
14317;DHT22;7242;50.858;6.586;2023-11-21T05:22:46;10.10;99.90
14317;DHT22;7242;50.858;6.586;2023-11-21T05:40:52;9.90;99.90
14317;DHT22;7242;50.858;6.586;2023-11-21T05:56:00;9.70;99.90
14317;DHT22;7242;50.858;6.586;2023-11-21T05:59:01;9.70;99.90
14317;DHT22;7242;50.858;6.586;2023-11-21T06:02:02;9.90;99.90
14317;DHT22;7242;50.858;6.586;2023-11-21T06:20:11;9.70;99.90
14317;DHT22;7242;50.858;6.586;2023-11-21T06:23:15;9.70;99.90
14317;DHT22;7242;50.858;6.586;2023-11-21T06:26:16;9.90;99.90
14317;DHT22;7242;50.858;6.586;2023-11-21T06:47:25;9.90;99.90
14317;DHT22;7242;50.858;6.586;2023-11-21T06:53:27;9.80;99.90
14317;DHT22;7242;50.858;6.586;2023-11-21T07:02:31;10.00;99.90
14317;DHT22;7242;50.858;6.586;2023-11-21T07:05:31;10.20;99.90
14317;DHT22;7242;50.858;6.586;2023-11-21T07:11:34;10.00;99.90
14317;DHT22;7242;50.858;6.586;2023-11-21T07:14:34;9.70;99.90
14317;DHT22;7242;50.858;6.586;2023-11-21T07:17:35;9.90;99.90
14317;DHT22;7242;50.858;6.586;2023-11-21T07:32:42;10.10;99.90
14317;DHT22;7242;50.858;6.586;2023-11-21T07:38:49;9.80;99.90
14317;DHT22;7242;50.858;6.586;2023-11-21T07:41:50;9.70;99.90
14317;DHT22;7242;50.858;6.586;2023-11-21T07:44:50;10.30;99.90
14317;DHT22;7242;50.858;6.586;2023-11-21T07:47:52;9.70;99.90
14317;DHT22;7242;50.858;6.586;2023-11-21T07:50:55;9.90;99.90
14317;DHT22;7242;50.858;6.586;2023-11-21T07:53:56;9.70;99.90
14317;DHT22;7242;50.858;6.586;2023-11-21T07:56:57;9.80;99.90
14317;DHT22;7242;50.858;6.586;2023-11-21T08:02:59;10.10;99.90
14317;DHT22;7242;50.858;6.586;2023-11-21T08:09:01;10.20;99.90
14317;DHT22;7242;50.858;6.586;2023-11-21T08:15:04;9.90;99.90
14317;DHT22;7242;50.858;6.586;2023-11-21T08:30:12;10.50;99.90
14317;DHT22;7242;50.858;6.586;2023-11-21T08:33:17;10.30;99.90
14317;DHT22;7242;50.858;6.586;2023-11-21T08:36:18;10.10;99.90
14317;DHT22;7242;50.858;6.586;2023-11-21T08:42:19;10.50;99.90
14317;DHT22;7242;50.858;6.586;2023-11-21T08:48:22;10.40;99.90
14317;DHT22;7242;50.858;6.586;2023-11-21T08:54:24;10.60;99.90
14317;DHT22;7242;50.858;6.586;2023-11-21T09:09:30;10.20;99.90
14317;DHT22;7242;50.858;6.586;2023-11-21T09:15:33;10.20;99.90
14317;DHT22;7242;50.858;6.586;2023-11-21T09:24:36;10.80;99.90
14317;DHT22;7242;50.858;6.586;2023-11-21T09:30:39;10.60;99.90
14317;DHT22;7242;50.858;6.586;2023-11-21T09:45:56;10.70;99.90
14317;DHT22;7242;50.858;6.586;2023-11-21T09:52:01;10.80;99.90
14317;DHT22;7242;50.858;6.586;2023-11-21T09:55:04;11.10;99.90
14317;DHT22;7242;50.858;6.586;2023-11-21T10:04:10;11.30;99.90
14317;DHT22;7242;50.858;6.586;2023-11-21T10:10:22;11.40;99.90
14317;DHT22;7242;50.858;6.586;2023-11-21T10:19:28;11.60;99.90
14317;DHT22;7242;50.858;6.586;2023-11-21T10:22:29;11.60;99.90
14317;DHT22;7242;50.858;6.586;2023-11-21T10:28:35;11.90;99.90
14317;DHT22;7242;50.858;6.586;2023-11-21T10:31:38;11.90;99.90
14317;DHT22;7242;50.858;6.586;2023-11-21T10:34:38;11.80;99.90
14317;DHT22;7242;50.858;6.586;2023-11-21T10:37:41;12.00;99.90
14317;DHT22;7242;50.858;6.586;2023-11-21T10:40:44;12.70;99.90
14317;DHT22;7242;50.858;6.586;2023-11-21T10:43:47;12.20;99.90
14317;DHT22;7242;50.858;6.586;2023-11-21T10:46:52;12.20;99.90
14317;DHT22;7242;50.858;6.586;2023-11-21T10:49:56;12.10;99.90
14317;DHT22;7242;50.858;6.586;2023-11-21T10:56:05;12.00;99.90
14317;DHT22;7242;50.858;6.586;2023-11-21T10:59:12;12.20;99.90
14317;DHT22;7242;50.858;6.586;2023-11-21T11:02:24;12.20;99.90
14317;DHT22;7242;50.858;6.586;2023-11-21T11:05:30;12.10;99.90
14317;DHT22;7242;50.858;6.586;2023-11-21T11:08:32;11.90;99.90
14317;DHT22;7242;50.858;6.586;2023-11-21T11:11:34;12.30;99.90
14317;DHT22;7242;50.858;6.586;2023-11-21T11:14:41;12.20;99.90
14317;DHT22;7242;50.858;6.586;2023-11-21T11:17:45;12.20;99.90
14317;DHT22;7242;50.858;6.586;2023-11-21T11:20:47;12.30;99.90
14317;DHT22;7242;50.858;6.586;2023-11-21T11:27:23;12.30;99.90
14317;DHT22;7242;50.858;6.586;2023-11-21T11:33:54;12.40;99.90
14317;DHT22;7242;50.858;6.586;2023-11-21T11:40:06;12.50;99.90
14317;DHT22;7242;50.858;6.586;2023-11-21T11:43:07;12.40;99.90
14317;DHT22;7242;50.858;6.586;2023-11-21T11:46:08;12.40;99.90
14317;DHT22;7242;50.858;6.586;2023-11-21T11:49:09;12.50;99.90
14317;DHT22;7242;50.858;6.586;2023-11-21T11:52:35;12.50;99.90
14317;DHT22;7242;50.858;6.586;2023-11-21T11:55:35;12.60;99.90
14317;DHT22;7242;50.858;6.586;2023-11-21T11:58:37;12.40;99.90
14317;DHT22;7242;50.858;6.586;2023-11-21T12:10:50;12.50;99.90
14317;DHT22;7242;50.858;6.586;2023-11-21T12:16:55;12.60;99.90
14317;DHT22;7242;50.858;6.586;2023-11-21T12:20:02;12.60;99.90
14317;DHT22;7242;50.858;6.586;2023-11-21T12:23:05;12.70;99.90
14317;DHT22;7242;50.858;6.586;2023-11-21T12:32:08;12.60;99.90
14317;DHT22;7242;50.858;6.586;2023-11-21T12:35:12;12.60;99.90
14317;DHT22;7242;50.858;6.586;2023-11-21T12:38:13;12.90;99.90
14317;DHT22;7242;50.858;6.586;2023-11-21T12:41:15;12.50;99.90
14317;DHT22;7242;50.858;6.586;2023-11-21T12:50:23;12.60;99.90
14317;DHT22;7242;50.858;6.586;2023-11-21T12:53:24;12.50;99.90
14317;DHT22;7242;50.858;6.586;2023-11-21T13:02:27;12.30;99.90
14317;DHT22;7242;50.858;6.586;2023-11-21T13:05:30;12.00;99.90
14317;DHT22;7242;50.858;6.586;2023-11-21T13:11:36;12.10;99.90
14317;DHT22;7242;50.858;6.586;2023-11-21T13:14:39;12.10;99.90
14317;DHT22;7242;50.858;6.586;2023-11-21T13:17:40;12.10;99.90
14317;DHT22;7242;50.858;6.586;2023-11-21T13:20:41;12.20;99.90
14317;DHT22;7242;50.858;6.586;2023-11-21T13:23:43;12.10;99.90
14317;DHT22;7242;50.858;6.586;2023-11-21T13:35:51;12.20;99.90
14317;DHT22;7242;50.858;6.586;2023-11-21T13:44:57;12.40;99.90
14317;DHT22;7242;50.858;6.586;2023-11-21T13:50:59;11.50;99.90
14317;DHT22;7242;50.858;6.586;2023-11-21T13:57:10;12.10;99.90
14317;DHT22;7242;50.858;6.586;2023-11-21T14:00:11;12.00;99.90
14317;DHT22;7242;50.858;6.586;2023-11-21T14:03:32;12.00;99.90
14317;DHT22;7242;50.858;6.586;2023-11-21T14:09:48;11.90;99.90
14317;DHT22;7242;50.858;6.586;2023-11-21T14:19:02;12.00;99.90
14317;DHT22;7242;50.858;6.586;2023-11-21T14:22:14;11.90;99.90
14317;DHT22;7242;50.858;6.586;2023-11-21T14:25:15;11.80;99.90
14317;DHT22;7242;50.858;6.586;2023-11-21T14:31:19;11.90;99.90
14317;DHT22;7242;50.858;6.586;2023-11-21T14:34:20;11.90;99.90
14317;DHT22;7242;50.858;6.586;2023-11-21T14:37:22;11.80;99.90
14317;DHT22;7242;50.858;6.586;2023-11-21T14:40:22;12.20;99.90
14317;DHT22;7242;50.858;6.586;2023-11-21T14:49:31;11.90;99.90
14317;DHT22;7242;50.858;6.586;2023-11-21T14:59:01;11.80;99.90
14317;DHT22;7242;50.858;6.586;2023-11-21T15:02:19;11.70;99.90
14317;DHT22;7242;50.858;6.586;2023-11-21T15:11:33;12.20;99.90
14317;DHT22;7242;50.858;6.586;2023-11-21T15:14:34;11.90;99.90
14317;DHT22;7242;50.858;6.586;2023-11-21T15:20:39;11.80;99.90
14317;DHT22;7242;50.858;6.586;2023-11-21T15:23:40;11.80;99.90
14317;DHT22;7242;50.858;6.586;2023-11-21T15:29:43;11.80;99.90
14317;DHT22;7242;50.858;6.586;2023-11-21T15:35:45;11.70;99.90
14317;DHT22;7242;50.858;6.586;2023-11-21T15:41:47;11.80;99.90
14317;DHT22;7242;50.858;6.586;2023-11-21T15:44:48;12.10;99.90
14317;DHT22;7242;50.858;6.586;2023-11-21T15:47:50;11.90;99.90
14317;DHT22;7242;50.858;6.586;2023-11-21T15:50:51;11.70;99.90
14317;DHT22;7242;50.858;6.586;2023-11-21T15:53:52;11.40;99.90
14317;DHT22;7242;50.858;6.586;2023-11-21T15:56:54;12.20;99.90
14317;DHT22;7242;50.858;6.586;2023-11-21T15:59:59;11.60;99.90
14317;DHT22;7242;50.858;6.586;2023-11-21T16:03:00;11.70;99.90
14317;DHT22;7242;50.858;6.586;2023-11-21T16:12:06;11.50;99.90
14317;DHT22;7242;50.858;6.586;2023-11-21T16:21:11;11.20;99.90
14317;DHT22;7242;50.858;6.586;2023-11-21T16:24:12;11.40;99.90
14317;DHT22;7242;50.858;6.586;2023-11-21T16:27:13;10.90;99.90
14317;DHT22;7242;50.858;6.586;2023-11-21T16:33:14;10.70;99.90
14317;DHT22;7242;50.858;6.586;2023-11-21T16:39:19;10.80;99.90
14317;DHT22;7242;50.858;6.586;2023-11-21T16:45:22;10.90;99.90
14317;DHT22;7242;50.858;6.586;2023-11-21T16:48:23;11.00;99.90
14317;DHT22;7242;50.858;6.586;2023-11-21T16:54:25;10.50;99.90
14317;DHT22;7242;50.858;6.586;2023-11-21T17:00:27;10.40;99.90
14317;DHT22;7242;50.858;6.586;2023-11-21T17:03:27;10.70;99.90
14317;DHT22;7242;50.858;6.586;2023-11-21T17:30:39;10.60;99.90
14317;DHT22;7242;50.858;6.586;2023-11-21T17:33:40;10.40;99.90
14317;DHT22;7242;50.858;6.586;2023-11-21T17:36:42;10.30;99.90
14317;DHT22;7242;50.858;6.586;2023-11-21T17:42:44;10.50;99.90
14317;DHT22;7242;50.858;6.586;2023-11-21T17:48:49;10.10;99.90
14317;DHT22;7242;50.858;6.586;2023-11-21T17:54:51;10.00;99.90
14317;DHT22;7242;50.858;6.586;2023-11-21T18:12:58;9.90;99.90
14317;DHT22;7242;50.858;6.586;2023-11-21T18:19:01;9.90;99.90
14317;DHT22;7242;50.858;6.586;2023-11-21T18:37:09;10.40;99.90
14317;DHT22;7242;50.858;6.586;2023-11-21T18:43:11;9.70;99.90
14317;DHT22;7242;50.858;6.586;2023-11-21T18:49:13;9.50;99.90
14317;DHT22;7242;50.858;6.586;2023-11-21T19:07:30;8.80;99.90
14317;DHT22;7242;50.858;6.586;2023-11-21T19:43:50;8.50;99.90
14317;DHT22;7242;50.858;6.586;2023-11-21T19:49:52;8.80;99.90
14317;DHT22;7242;50.858;6.586;2023-11-21T19:58:56;8.40;99.90
14317;DHT22;7242;50.858;6.586;2023-11-21T20:01:57;8.80;99.90
14317;DHT22;7242;50.858;6.586;2023-11-21T20:08:00;8.50;99.90
14317;DHT22;7242;50.858;6.586;2023-11-21T20:35:11;8.60;99.90
14317;DHT22;7242;50.858;6.586;2023-11-21T20:38:13;8.70;99.90
14317;DHT22;7242;50.858;6.586;2023-11-21T20:44:15;8.30;99.90
14317;DHT22;7242;50.858;6.586;2023-11-21T20:47:16;8.30;99.90
14317;DHT22;7242;50.858;6.586;2023-11-21T20:53:21;8.40;99.90
14317;DHT22;7242;50.858;6.586;2023-11-21T21:23:36;8.20;99.90
14317;DHT22;7242;50.858;6.586;2023-11-21T21:50:51;7.70;99.90
14317;DHT22;7242;50.858;6.586;2023-11-21T22:21:06;7.90;99.90
14317;DHT22;7242;50.858;6.586;2023-11-21T22:30:10;8.20;99.90
14317;DHT22;7242;50.858;6.586;2023-11-21T22:48:19;8.20;99.90
14317;DHT22;7242;50.858;6.586;2023-11-21T22:51:20;7.70;99.90
14317;DHT22;7242;50.858;6.586;2023-11-21T23:09:32;8.10;99.90
14317;DHT22;7242;50.858;6.586;2023-11-21T23:12:33;8.10;99.90
14317;DHT22;7242;50.858;6.586;2023-11-21T23:15:34;7.90;99.90
14317;DHT22;7242;50.858;6.586;2023-11-21T23:21:37;7.70;99.90
14317;DHT22;7242;50.858;6.586;2023-11-21T23:27:39;7.20;99.90
14317;DHT22;7242;50.858;6.586;2023-11-21T23:33:42;7.30;99.90
14317;DHT22;7242;50.858;6.586;2023-11-21T23:42:48;7.30;99.90
14317;DHT22;7242;50.858;6.586;2023-11-21T23:45:49;7.30;99.90
14317;DHT22;7242;50.858;6.586;2023-11-21T23:51:51;7.40;99.90
14317;DHT22;7242;50.858;6.586;2023-11-21T23:54:52;7.60;99.90
